Tiempo atmosférico en la estación meteorológica de Cáseda, Navarra (440 m.)



Fecha
DESCASC
Temp. máxima en grados centígrados (hora)
DESCASC
Temp. mínima en grados centígrados (hora)
DESCASC
Temp. media en grados centígrados
DESCASC
Racha de viento máxima en m/sg (hora)
DESCASC
Velocidad máxima media en intervalos de 10 minutos(hora)
DESCASC
Precipitaciones diarias en mm
DESCASC
Precipitaciones de 00:00 a 06:00 en mm
DESCASC
Precipitaciones de 06:00 a 12:00 en mm
DESCASC
Precipitaciones de 12:00 a 18:00 en mm
DESCASC
Precipitaciones de 18:00 a 24:00 en mm
DESCASC
20-09-2020 -- (--) -- (--) -- -- (--) -- (--) -- -- -- -- --
19-09-2020 -- (--) -- (--) -- -- (--) -- (--) -- 0 1.4 -- --
18-09-2020 27 (15:20) 16.9 (23:50) 21.9 13.89 (14:30) 7.78 (13:40) 0.6 0 0.2 0.4 0
17-09-2020 31.7 (14:20) 17.9 (00:00) 24.8 10.83 (16:20) 6.67 (14:50) 0 0 0 0 0
16-09-2020 33.6 (16:30) 16.1 (00:00) 24.8 8.06 (14:20) 3.61 (15:40) 0 0 0 0 0
15-09-2020 31.6 (15:50) 17.2 (00:00) 24.4 8.61 (13:20) 5.56 (13:30) 1.6 1.4 0 0.2 0
14-09-2020 34.1 (14:50) 16.5 (00:00) 25.3 10.28 (14:40) 6.11 (14:40) 0 0 0 0 0
13-09-2020 34.1 (17:00) 12.7 (00:00) 23.4 10.28 (16:50) 6.11 (13:50) 0 0 0 0 0
12-09-2020 32.1 (16:30) 12.6 (00:00) 22.3 6.67 (19:40) 3.33 (15:20) 0 0 0 0 0
11-09-2020 30.8 (17:20) 12.7 (00:00) 21.7 8.33 (18:20) 3.61 (18:10) 0 0 0 0 0
10-09-2020 30 (14:30) 16.4 (00:00) 23.2 11.11 (16:10) 5.83 (17:40) 0 0 0 0 0
09-09-2020 30.7 (15:30) 10.5 (00:00) 20.6 11.67 (20:00) 6.67 (19:30) 0 0 0 0 0
08-09-2020 28.8 (17:10) 8.5 (00:00) 18.6 10 (00:10) 5.83 (00:10) 0 0 0 0 0
07-09-2020 22.6 (16:10) 13.2 (08:00) 17.9 13.89 (20:10) 7.5 (14:20) 0 0 0 0 0
06-09-2020 23.1 (15:00) 15.7 (00:00) 19.4 12.5 (17:50) 6.94 (17:40) 0 0 0 0 0
05-09-2020 28.5 (13:40) 14.1 (00:00) 21.3 9.44 (17:20) 4.72 (16:40) 0 0 0 0 0
04-09-2020 33.9 (16:30) 12.2 (00:00) 23.1 11.39 (14:10) 6.39 (14:20) 0 0 0 0 0
03-09-2020 31.6 (18:20) 9.1 (00:00) 20.4 7.22 (14:20) 4.44 (21:00) 0 0 0 0 0
02-09-2020 26.8 (16:00) 14.2 (00:00) 20.5 9.72 (19:20) 5.28 (19:20) 0 0 0 0 0
01-09-2020 27.2 (15:50) 11.5 (00:00) 19.4 9.44 (17:40) 5.83 (18:00) 0 0 0 0 0
31-08-2020 25.9 (17:20) 9.2 (00:00) 17.5 6.94 (18:30) 3.61 (18:30) 0 0 0 0 0
30-08-2020 20.3 (15:40) 10.4 (00:00) 15.3 12.78 (16:40) 6.94 (17:10) 0 0 0 0 0
29-08-2020 22.2 (15:50) 12.5 (00:00) 17.4 11.94 (17:10) 7.22 (17:10) 1.4 0 0 0 1.4
28-08-2020 24.8 (14:30) 16.2 (00:00) 20.5 14.17 (19:30) 7.22 (18:30) 0 0 0 0 0
27-08-2020 35.6 (17:00) 16.7 (00:00) 26.1 8.89 (18:50) 5.28 (18:50) 0 0 0 0 0
26-08-2020 35.2 (16:50) 16.8 (00:00) 26 8.61 (15:20) 4.44 (18:20) 0 0 0 0 0
25-08-2020 35.4 (18:00) 13.5 (00:00) 24.5 8.61 (16:30) 5.28 (16:30) 0 0 0 0 0
24-08-2020 29.8 (17:30) 15.4 (00:00) 22.6 7.22 (03:30) 3.89 (05:20) 0 0 0 0 0
23-08-2020 28 (17:30) 16.2 (00:00) 22.1 9.72 (15:40) 5.83 (15:40) 0 0 0 0 0

Gráficas

Temp. máximas Temp. mínimas Temp. medias Precipitaciones Rachas de viento máximas Velocidades máximas media en intervalos de 10 minutos

Datos horarios

Fecha y hora oficial Temperatura (ºC) Velocidad del viento (km/h) Dirección del viento Racha (km/h) Dirección de racha Precipitación (mm) Presión (hPa) Tendencia (hPa) Humedad (%)
2020-09-21 23:00:00 16.2 2 Sudoeste 8 Nordeste 0 -- -- 75
2020-09-21 22:00:00 17.3 4 Norte 13 Norte 0 -- -- 71
2020-09-21 21:00:00 18.2 4 Noroeste 13 Noroeste 0 -- -- 67
2020-09-21 20:00:00 19.8 5 Noroeste 20 Noroeste 0 -- -- 62
2020-09-21 19:00:00 21.5 12 Noroeste 25 Norte 0 -- -- 55
2020-09-21 18:00:00 22.2 14 Noroeste 30 Norte 0 -- -- 52
2020-09-21 17:00:00 22.5 15 Noroeste 29 Norte 0 -- -- 52
2020-09-21 16:00:00 23.3 18 Noroeste 28 Noroeste 0 -- -- 52
2020-09-21 15:00:00 22.9 17 Noroeste 30 Noroeste 0 -- -- 52
2020-09-21 14:00:00 23.5 10 Norte 22 Noroeste 0 -- -- 53
2020-09-21 13:00:00 22.6 12 Noroeste 22 Noroeste 0 -- -- 57
2020-09-21 12:00:00 21.5 9 Noroeste 17 Noroeste 0 -- -- 62
2020-09-21 11:00:00 19.4 3 Nordeste -- -- -- -- -- 70
2020-09-21 10:00:00 -- -- -- -- -- -- -- -- --
2020-09-21 09:00:00 -- -- -- -- -- -- -- -- --
2020-09-21 08:00:00 -- -- -- -- -- -- -- -- --
2020-09-21 07:00:00 -- -- -- -- -- -- -- -- --
2020-09-21 06:00:00 -- -- -- -- -- -- -- -- --
2020-09-21 05:00:00 -- -- -- -- -- -- -- -- --
2020-09-21 04:00:00 -- -- -- -- -- -- -- -- --
2020-09-21 03:00:00 -- -- -- -- -- -- -- -- --
2020-09-21 02:00:00 -- -- -- -- -- -- -- -- --
2020-09-21 01:00:00 -- -- -- -- -- -- -- -- --
2020-09-21 00:00:00 -- -- -- -- -- -- -- -- --
2020-09-20 23:00:00 -- -- -- -- -- -- -- -- --
2020-09-20 22:00:00 -- -- -- -- -- -- -- -- --
2020-09-20 21:00:00 -- -- -- -- -- -- -- -- --
2020-09-20 20:00:00 -- -- -- -- -- -- -- -- --
2020-09-20 19:00:00 -- -- -- -- -- -- -- -- --
2020-09-20 18:00:00 -- -- -- -- -- -- -- -- --
2020-09-20 17:00:00 -- -- -- -- -- -- -- -- --
2020-09-20 16:00:00 -- -- -- -- -- -- -- -- --
2020-09-20 15:00:00 -- -- -- -- -- -- -- -- --
2020-09-20 14:00:00 -- -- -- -- -- -- -- -- --
2020-09-20 13:00:00 -- -- -- -- -- -- -- -- --
2020-09-20 12:00:00 -- -- -- -- -- -- -- -- --
2020-09-20 11:00:00 -- -- -- -- -- -- -- -- --
2020-09-20 10:00:00 -- -- -- -- -- -- -- -- --
2020-09-20 09:00:00 -- -- -- -- -- -- -- -- --
2020-09-20 08:00:00 -- -- -- -- -- -- -- -- --
2020-09-20 07:00:00 -- -- -- -- -- -- -- -- --
2020-09-20 06:00:00 -- -- -- -- -- -- -- -- --
2020-09-20 05:00:00 -- -- -- -- -- -- -- -- --
2020-09-20 04:00:00 -- -- -- -- -- -- -- -- --
2020-09-20 03:00:00 -- -- -- -- -- -- -- -- --
2020-09-20 02:00:00 -- -- -- -- -- -- -- -- --
2020-09-20 01:00:00 -- -- -- -- -- -- -- -- --
2020-09-20 00:00:00 -- -- -- -- -- -- -- -- --
2020-09-19 23:00:00 -- -- -- -- -- -- -- -- --
2020-09-19 22:00:00 -- -- -- -- -- -- -- -- --
2020-09-19 21:00:00 -- -- -- -- -- -- -- -- --
2020-09-19 20:00:00 -- -- -- -- -- -- -- -- --
2020-09-19 19:00:00 -- -- -- -- -- -- -- -- --
2020-09-19 18:00:00 -- -- -- -- -- -- -- -- --
2020-09-19 17:00:00 -- -- -- -- -- -- -- -- --
2020-09-19 16:00:00 -- -- -- -- -- -- -- -- --
2020-09-19 15:00:00 23.1 20 Sur 37 Sur 0 -- -- 60
2020-09-19 14:00:00 21.7 21 Sur 37 Sudeste 0 -- -- 70
2020-09-19 13:00:00 19.7 13 Sudeste 31 Sur 0.6 -- -- 77
2020-09-19 12:00:00 18.2 17 Sur 32 Sur 0.8 -- -- 84
2020-09-19 11:00:00 18.5 17 Sur 35 Sur 0.4 -- -- 80
2020-09-19 10:00:00 19.6 18 Sur 31 Sur 0 -- -- 69
2020-09-19 09:00:00 17.1 5 Este 19 Sur 0 -- -- 74
2020-09-19 08:00:00 17.2 13 Sur 32 Sur 0 -- -- 72
2020-09-19 07:00:00 17.8 19 Sur 50 Sur 0.2 -- -- 75
2020-09-19 06:00:00 19.4 21 Sudeste 37 Sur 0 -- -- 66
2020-09-19 05:00:00 19.3 8 Sudeste 19 Sudeste 0 -- -- 68
2020-09-19 04:00:00 18.2 4 Noroeste 30 Sudeste 0 -- -- 77
2020-09-19 03:00:00 16.9 4 Sudeste 17 Sudoeste 0 -- -- 83
2020-09-19 02:00:00 17.1 3 Oeste 7 Oeste 0 -- -- 85
2020-09-19 01:00:00 17.1 3 Oeste 12 Oeste 0 -- -- 84
2020-09-19 00:00:00 16.9 5 Oeste 12 Oeste 0 -- -- 84
2020-09-18 23:00:00 17.2 6 Oeste 11 Oeste 0 -- -- 83
2020-09-18 22:00:00 17.9 3 Oeste 9 Sudeste 0 -- -- 81
2020-09-18 21:00:00 18.7 2 Nordeste 18 Este 0 -- -- 76
2020-09-18 20:00:00 19.2 8 Este 24 Nordeste 0 -- -- 73
2020-09-18 19:00:00 20.8 11 Este 26 Nordeste 0 -- -- 75
2020-09-18 18:00:00 20.3 8 Noroeste 42 Sudeste 0.4 -- -- 77
2020-09-18 17:00:00 23.7 19 Sudeste 39 Sudeste 0 -- -- 60
2020-09-18 16:00:00 25.7 20 Sudeste 43 Sur 0 -- -- 49
2020-09-18 15:00:00 25.5 24 Sudeste 50 Sudeste 0 -- -- 52
2020-09-18 14:00:00 25.1 17 Sudeste 49 Sudeste 0 -- -- 54
2020-09-18 13:00:00 24.1 18 Sudeste 41 Sur 0 -- -- 57
2020-09-18 12:00:00 23.5 11 Sudeste 33 Este 0 -- -- 58
2020-09-18 11:00:00 22 15 Sudeste 35 Sur 0.2 -- -- 64
2020-09-18 10:00:00 22 20 Sudeste 46 Sudeste 0 -- -- 61
2020-09-18 09:00:00 22.6 25 Sudeste 44 Sudeste 0 -- -- 53
2020-09-18 08:00:00 22.3 14 Sudeste 34 Sudeste 0 -- -- 54
2020-09-18 07:00:00 22.4 18 Sudeste 41 Sudeste 0 -- -- 54
2020-09-18 06:00:00 22.4 14 Sudeste 35 Sudeste 0 -- -- 53
2020-09-18 05:00:00 22.2 6 Oeste 9 Oeste 0 -- -- 53
2020-09-18 04:00:00 22.4 5 Noroeste 11 Noroeste 0 -- -- 53
2020-09-18 03:00:00 23.2 4 Noroeste 26 Sudeste 0 -- -- 50
2020-09-18 02:00:00 24.5 9 Sur 30 Sudeste 0 -- -- 48
2020-09-18 01:00:00 25.3 17 Sudeste 32 Este 0 -- -- 44
2020-09-18 00:00:00 25.7 16 Sudeste 37 Sudeste 0 -- -- 43
2020-09-17 23:00:00 26.1 17 Sudeste 36 Sudeste 0 -- -- 41
2020-09-17 22:00:00 26.5 14 Sudeste 31 Este 0 -- -- 37
2020-09-17 21:00:00 27 12 Sudeste 30 Sudeste 0 -- -- 36
2020-09-17 20:00:00 27.8 9 Sudeste 26 Sudeste 0 -- -- 34
2020-09-17 19:00:00 28.6 14 Sudeste 29 Sudeste 0 -- -- 37
2020-09-17 18:00:00 29.3 18 Sudeste 29 Sudeste 0 -- -- 36
2020-09-17 17:00:00 29.9 15 Sudeste 39 Sur 0 -- -- 34
2020-09-17 16:00:00 30.4 19 Sudeste 36 Sudeste 0 -- -- 32
2020-09-17 15:00:00 31.2 23 Sur 37 Sudeste 0 -- -- 31
2020-09-17 14:00:00 30.2 11 Sudeste 35 Sudeste 0 -- -- 34
2020-09-17 13:00:00 28.3 7 Nordeste 13 Nordeste 0 -- -- 46
2020-09-17 12:00:00 25.8 6 Nordeste 12 Nordeste 0 -- -- 50
2020-09-17 11:00:00 22.6 4 Nordeste 6 Norte 0 -- -- 58
2020-09-17 10:00:00 20.5 4 Nordeste 5 Nordeste 0 -- -- 62
2020-09-17 09:00:00 19.6 5 Sudoeste 11 Sur 0 -- -- 64
2020-09-17 08:00:00 18.7 4 Oeste 8 Oeste 0 -- -- 65
2020-09-17 07:00:00 18.1 3 Sudoeste 6 Sur 0 -- -- 67
2020-09-17 06:00:00 17.9 3 Oeste 9 Sudoeste 0 -- -- 66
2020-09-17 05:00:00 18.4 4 Sudoeste 8 Oeste 0 -- -- 66
2020-09-17 04:00:00 18.8 4 Oeste 13 Sudoeste 0 -- -- 64
2020-09-17 03:00:00 19.7 0 Calma 6 Sudoeste 0 -- -- 60
2020-09-17 02:00:00 19.8 4 Oeste 7 Sudoeste 0 -- -- 58
2020-09-17 01:00:00 20.3 2 Este 9 Sudoeste 0 -- -- 57
2020-09-17 00:00:00 21.4 2 Oeste 6 Noroeste 0 -- -- 56
2020-09-16 23:00:00 23.4 2 Sur 8 Sur 0 -- -- 50
2020-09-16 22:00:00 24.9 4 Sudoeste 12 Sudoeste 0 -- -- 46
2020-09-16 21:00:00 25.1 10 Sudoeste 14 Sur 0 -- -- 42
2020-09-16 20:00:00 27.7 13 Sur 14 Sur 0 -- -- 37
2020-09-16 19:00:00 32 5 Oeste 11 Oeste 0 -- -- 30
2020-09-16 18:00:00 32 3 Oeste 14 Sudeste 0 -- -- 28
2020-09-16 17:00:00 33 6 Este 26 Sur 0 -- -- 26
2020-09-16 16:00:00 33.4 10 Sur 26 Sur 0 -- -- 26
2020-09-16 15:00:00 32.3 10 Sur 29 Oeste 0 -- -- 31
2020-09-16 14:00:00 31.1 9 Noroeste 14 Noroeste 0 -- -- 36
2020-09-16 13:00:00 27.7 4 Norte 8 Nordeste 0 -- -- 44
2020-09-16 12:00:00 24.9 4 Norte 7 Nordeste 0 -- -- 48
2020-09-16 11:00:00 22.1 3 Nordeste 9 Este 0 -- -- 57
2020-09-16 10:00:00 19.9 5 Este 9 Este 0 -- -- 63
2020-09-16 09:00:00 17.6 2 Sudeste 6 Sudeste 0 -- -- 73
2020-09-16 08:00:00 16.1 6 Sudeste 8 Sudeste 0 -- -- 75
2020-09-16 07:00:00 16.5 0 Calma 6 Sudeste 0 -- -- 72
2020-09-16 06:00:00 17.5 7 Sur 12 Sudeste 0 -- -- 69
2020-09-16 05:00:00 18.4 5 Sudeste 7 Sudeste 0 -- -- 66
2020-09-16 04:00:00 18.8 3 Sur 5 Sur 0 -- -- 64
2020-09-16 03:00:00 19.2 0 Calma 4 Este 0 -- -- 63
2020-09-16 02:00:00 19.8 2 Sudeste 8 Sur 0 -- -- 60
2020-09-16 01:00:00 21.2 0 Calma 8 Sudoeste 0 -- -- 56
2020-09-16 00:00:00 21.4 4 Oeste 10 Sudoeste 0 -- -- 54
2020-09-15 23:00:00 22.7 7 Sudoeste 10 Sudoeste 0 -- -- 51
2020-09-15 22:00:00 24.5 2 Sudeste 8 Sur 0 -- -- 47
2020-09-15 21:00:00 25.3 7 Sudoeste 14 Sudoeste 0 -- -- 44
2020-09-15 20:00:00 28.1 6 Sur 7 Sudoeste 0 -- -- 41
2020-09-15 19:00:00 30 4 Nordeste 9 Nordeste 0 -- -- 35
2020-09-15 18:00:00 31.1 6 Sudoeste 23 Sudoeste 0 -- -- 34
2020-09-15 17:00:00 31.2 9 Sudeste 27 Sur 0 -- -- 34
2020-09-15 16:00:00 31.4 10 Sudoeste 27 Sudoeste 0 -- -- 31
2020-09-15 15:00:00 31.2 12 Sudoeste 27 Sudoeste 0 -- -- 35
2020-09-15 14:00:00 29.9 9 Sur 31 Sur 0 -- -- 37
2020-09-15 13:00:00 27 5 Noroeste 12 Norte 0.2 -- -- 49
2020-09-15 12:00:00 23.8 6 Norte 15 Oeste 0 -- -- 58
2020-09-15 11:00:00 21.2 11 Oeste 15 Oeste 0 -- -- 68
2020-09-15 10:00:00 20.5 4 Este 6 Este 0 -- -- 70
2020-09-15 09:00:00 18.3 4 Sudoeste 8 Oeste 0 -- -- 79
2020-09-15 08:00:00 17.3 5 Sudoeste 13 Oeste 0 -- -- 80
2020-09-15 07:00:00 18.4 2 Oeste 9 Noroeste 0 -- -- 75
2020-09-15 06:00:00 19 4 Nordeste 19 Oeste 0 -- -- 72
2020-09-15 05:00:00 18.2 11 Noroeste 22 Este 0.2 -- -- 80
2020-09-15 04:00:00 19.5 8 Sudeste 29 Sur 0.2 -- -- 68
2020-09-15 03:00:00 21 12 Sudeste 22 Sudeste 1 -- -- 66
2020-09-15 02:00:00 22.5 5 Oeste 7 Oeste 0 -- -- 46
2020-09-15 01:00:00 22.1 2 Norte 10 Nordeste 0 -- -- 47
2020-09-15 00:00:00 24 3 Oeste 10 Noroeste 0 -- -- 42
2020-09-14 23:00:00 24.3 4 Noroeste 16 Sudoeste 0 -- -- 41
2020-09-14 22:00:00 25.7 2 Nordeste 18 Sudeste 0 -- -- 39
2020-09-14 21:00:00 27.1 6 Sur 16 Sur 0 -- -- 36
2020-09-14 20:00:00 29.2 9 Sudeste 18 Sudeste 0 -- -- 32
2020-09-14 19:00:00 30.6 9 Sudeste 21 Sudeste 0 -- -- 28
2020-09-14 18:00:00 31.5 13 Sur 32 Sur 0 -- -- 26
2020-09-14 17:00:00 33.3 18 Sur 34 Sur 0 -- -- 24
2020-09-14 16:00:00 33.8 21 Sur 37 Sur 0 -- -- 25
2020-09-14 15:00:00 33.1 20 Sur 37 Sur 0 -- -- 25
2020-09-14 14:00:00 33 16 Sur 35 Sur 0 -- -- 27
2020-09-14 13:00:00 31 13 Sudeste 32 Sudeste 0 -- -- 30
2020-09-14 12:00:00 27.9 8 Sudeste 19 Sur 0 -- -- 35
2020-09-14 11:00:00 24.3 4 Norte 7 Noroeste 0 -- -- 42
2020-09-14 10:00:00 21.1 2 Norte 5 Norte 0 -- -- 54
2020-09-14 09:00:00 18.2 0 Calma 4 Este 0 -- -- 57
2020-09-14 08:00:00 16.6 2 Este 7 Sudeste 0 -- -- 60
2020-09-14 07:00:00 17.3 2 Este 11 Sur 0 -- -- 57
2020-09-14 06:00:00 17.9 6 Sudoeste 9 Sudoeste 0 -- -- 55
2020-09-14 05:00:00 18.5 4 Sudoeste 8 Oeste 0 -- -- 53
2020-09-14 04:00:00 19.8 0 Calma 7 Sudoeste 0 -- -- 49
2020-09-14 03:00:00 20.2 2 Nordeste 6 Sur 0 -- -- 48
2020-09-14 02:00:00 20.7 2 Sur 7 Sudoeste 0 -- -- 47
2020-09-14 01:00:00 21.8 0 Calma 7 Oeste 0 -- -- 44
2020-09-14 00:00:00 22.5 3 Norte 11 Oeste 0 -- -- 44
2020-09-13 23:00:00 23.8 6 Oeste 12 Noroeste 0 -- -- 41
2020-09-13 22:00:00 27.1 4 Sudeste 30 Sur 0 -- -- 35
2020-09-13 21:00:00 28.3 18 Sur 29 Sur 0 -- -- 33
2020-09-13 20:00:00 29.7 11 Sudeste 26 Sudeste 0 -- -- 29
2020-09-13 19:00:00 32.4 13 Sur 30 Sudoeste 0 -- -- 25
2020-09-13 18:00:00 33.7 14 Sur 32 Sur 0 -- -- 25
2020-09-13 17:00:00 34.1 18 Sur 37 Sur 0 -- -- 26
2020-09-13 16:00:00 33.3 14 Sudeste 36 Sudeste 0 -- -- 28
2020-09-13 15:00:00 32.8 15 Sudeste 33 Sudeste 0 -- -- 29
2020-09-13 14:00:00 32.4 20 Sur 35 Sur 0 -- -- 31
2020-09-13 13:00:00 30.1 18 Sur 34 Sur 0 -- -- 35
2020-09-13 12:00:00 24.4 5 Noroeste 8 Noroeste 0 -- -- 48
2020-09-13 11:00:00 21 3 Norte 6 Nordeste 0 -- -- 58
2020-09-13 10:00:00 17.6 3 Nordeste 5 Nordeste 0 -- -- 69
2020-09-13 09:00:00 14.7 0 Calma 4 Nordeste 0 -- -- 81
2020-09-13 08:00:00 12.7 0 Calma 3 Nordeste 0 -- -- 86
2020-09-13 07:00:00 13.8 0 Calma 4 Sur 0 -- -- 83
2020-09-13 06:00:00 14.5 3 Oeste 9 Sudoeste 0 -- -- 82
2020-09-13 05:00:00 14.5 5 Sudoeste 10 Sudoeste 0 -- -- 81
2020-09-13 04:00:00 15.3 0 Calma 6 Sudeste 0 -- -- 79
2020-09-13 03:00:00 16.1 3 Sudeste 7 Sudeste 0 -- -- 78
2020-09-13 02:00:00 16.6 3 Norte 9 Oeste 0 -- -- 76
2020-09-13 01:00:00 19 0 Calma 5 Sudeste 0 -- -- 68
2020-09-13 00:00:00 20.8 3 Este 6 Sur 0 -- -- 63
2020-09-12 23:00:00 21.8 3 Sudoeste 6 Sudoeste 0 -- -- 60
2020-09-12 22:00:00 23.5 2 Noroeste 10 Sudoeste 0 -- -- 56
2020-09-12 21:00:00 24.7 4 Sur 13 Norte 0 -- -- 52
2020-09-12 20:00:00 27.3 7 Norte 24 Noroeste 0 -- -- 46
2020-09-12 19:00:00 30.7 3 Sudeste 11 Noroeste 0 -- -- 19
2020-09-12 18:00:00 31.7 5 Oeste 16 Sur 0 -- -- 19
2020-09-12 17:00:00 32.1 8 Sudoeste 23 Sur 0 -- -- 17
2020-09-12 16:00:00 31.7 12 Sudoeste 23 Sur 0 -- -- 16
2020-09-12 15:00:00 31 8 Sudoeste 18 Sudoeste 0 -- -- 22
2020-09-12 14:00:00 27.9 9 Noroeste 14 Noroeste 0 -- -- 41
2020-09-12 13:00:00 25.5 4 Este 8 Nordeste 0 -- -- 49
2020-09-12 12:00:00 22.4 4 Nordeste 8 Nordeste 0 -- -- 61
2020-09-12 11:00:00 19.6 4 Noroeste 7 Nordeste 0 -- -- 70
2020-09-12 10:00:00 17.3 3 Nordeste 6 Nordeste 0 -- -- 76
2020-09-12 09:00:00 13.9 2 Este 5 Sudoeste 0 -- -- 86
2020-09-12 08:00:00 12.6 0 Calma 5 Sudoeste 0 -- -- 91
2020-09-12 07:00:00 13 2 Sudoeste 8 Sudoeste 0 -- -- 89
2020-09-12 06:00:00 13.8 3 Sudoeste 7 Sudoeste 0 -- -- 89
2020-09-12 05:00:00 14.5 2 Este 4 Sudeste 0 -- -- 86
2020-09-12 04:00:00 16.1 0 Calma 13 Sudeste 0 -- -- 80
2020-09-12 03:00:00 17.6 9 Sudeste 12 Sudeste 0 -- -- 80
2020-09-12 02:00:00 18.2 7 Sudeste 13 Sudeste 0 -- -- 77
2020-09-12 01:00:00 18.7 8 Sudeste 10 Sudeste 0 -- -- 74
2020-09-12 00:00:00 20 4 Sudeste 6 Sudeste 0 -- -- 67
2020-09-11 23:00:00 21.3 2 Noroeste 8 Norte 0 -- -- 63
2020-09-11 22:00:00 22.2 3 Oeste 9 Norte 0 -- -- 59
2020-09-11 21:00:00 23.3 5 Sudoeste 12 Oeste 0 -- -- 54
2020-09-11 20:00:00 26.4 6 Norte 22 Norte 0 -- -- 47
2020-09-11 19:00:00 28.1 10 Norte 30 Norte 0 -- -- 42
2020-09-11 18:00:00 29.9 11 Norte 30 Noroeste 0 -- -- 40
2020-09-11 17:00:00 30.1 8 Nordeste 13 Este 0 -- -- 38
2020-09-11 16:00:00 29.5 5 Este 18 Nordeste 0 -- -- 38
2020-09-11 15:00:00 29.7 8 Este 12 Este 0 -- -- 36
2020-09-11 14:00:00 28.1 4 Este 13 Noroeste 0 -- -- 37
2020-09-11 13:00:00 26 6 Nordeste 11 Nordeste 0 -- -- 46
2020-09-11 12:00:00 23.5 4 Nordeste 9 Este 0 -- -- 52
2020-09-11 11:00:00 20.8 4 Nordeste 9 Nordeste 0 -- -- 61
2020-09-11 10:00:00 17.8 4 Nordeste 9 Este 0 -- -- 69
2020-09-11 09:00:00 15.8 2 Nordeste 5 Sudeste 0 -- -- 75
2020-09-11 08:00:00 12.9 0 Calma 4 Sudeste 0 -- -- 84
2020-09-11 07:00:00 13.1 3 Oeste 5 Oeste 0 -- -- 84
2020-09-11 06:00:00 13.7 5 Sudoeste 6 Sudoeste 0 -- -- 83
2020-09-11 05:00:00 16.1 4 Este 12 Este 0 -- -- 75
2020-09-11 04:00:00 16.5 5 Sudeste 8 Sudeste 0 -- -- 73
2020-09-11 03:00:00 17.1 5 Sudeste 11 Sudeste 0 -- -- 71
2020-09-11 02:00:00 18.1 3 Sudeste 9 Este 0 -- -- 66
2020-09-11 01:00:00 18.2 6 Sudeste 9 Sur 0 -- -- 66
2020-09-11 00:00:00 19.7 5 Nordeste 13 Norte 0 -- -- 61
2020-09-10 23:00:00 20.4 3 Nordeste 18 Nordeste 0 -- -- 59
2020-09-10 22:00:00 21.4 9 Norte 25 Noroeste 0 -- -- 56
2020-09-10 21:00:00 22.6 11 Norte 27 Noroeste 0 -- -- 52
2020-09-10 20:00:00 24.6 10 Norte 30 Nordeste 0 -- -- 46
2020-09-10 19:00:00 26.4 15 Norte 34 Norte 0 -- -- 39
2020-09-10 18:00:00 27.6 19 Norte 34 Norte 0 -- -- 35
2020-09-10 17:00:00 29.2 16 Norte 40 Norte 0 -- -- 31
2020-09-10 16:00:00 29.7 18 Norte 36 Noroeste 0 -- -- 29
2020-09-10 15:00:00 29.7 17 Norte 32 Norte 0 -- -- 30
2020-09-10 14:00:00 29.2 16 Norte 33 Nordeste 0 -- -- 31
2020-09-10 13:00:00 28.7 17 Norte 35 Norte 0 -- -- 31
2020-09-10 12:00:00 27.9 13 Nordeste 26 Norte 0 -- -- 34
2020-09-10 11:00:00 25.7 10 Nordeste 22 Nordeste 0 -- -- 38
2020-09-10 10:00:00 22.5 7 Noroeste 19 Norte 0 -- -- 44
2020-09-10 09:00:00 18.4 5 Este 15 Este 0 -- -- 55
2020-09-10 08:00:00 16.7 7 Nordeste 11 Este 0 -- -- 63
2020-09-10 07:00:00 17.2 2 Norte 11 Sudeste 0 -- -- 61
2020-09-10 06:00:00 17.7 6 Este 11 Sudeste 0 -- -- 59
2020-09-10 05:00:00 18 3 Sudeste 13 Norte 0 -- -- 57
2020-09-10 04:00:00 19.7 6 Norte 18 Este 0 -- -- 52
2020-09-10 03:00:00 19.5 6 Este 21 Nordeste 0 -- -- 51
2020-09-10 02:00:00 19.5 8 Este 21 Nordeste 0 -- -- 51
2020-09-10 01:00:00 20.3 13 Este 28 Nordeste 0 -- -- 49
2020-09-10 00:00:00 20.3 10 Sur 15 Sur 0 -- -- 51
2020-09-09 23:00:00 21.4 6 Noroeste 21 Norte 0 -- -- 52
2020-09-09 22:00:00 22.8 9 Noroeste 26 Nordeste 0 -- -- 52
2020-09-09 21:00:00 24 15 Nordeste 38 Nordeste 0 -- -- 44
2020-09-09 20:00:00 25.7 22 Nordeste 42 Nordeste 0 -- -- 40
2020-09-09 19:00:00 27.7 20 Norte 36 Norte 0 -- -- 37
2020-09-09 18:00:00 28.8 13 Norte 30 Norte 0 -- -- 36
2020-09-09 17:00:00 28.9 11 Norte 26 Nordeste 0 -- -- 35
2020-09-09 16:00:00 30 9 Sur 21 Sudoeste 0 -- -- 32
2020-09-09 15:00:00 29.4 6 Oeste 19 Sudoeste 0 -- -- 33
2020-09-09 14:00:00 28.3 10 Sur 26 Sur 0 -- -- 35
2020-09-09 13:00:00 25.4 6 Nordeste 11 Nordeste 0 -- -- 42
2020-09-09 12:00:00 21.1 4 Nordeste 10 Nordeste 0 -- -- 50
2020-09-09 11:00:00 18.4 5 Nordeste 15 Nordeste 0 -- -- 56
2020-09-09 10:00:00 15 4 Sudeste 9 Sur 0 -- -- 67
2020-09-09 09:00:00 11.3 3 Sur 6 Sudoeste 0 -- -- 79
2020-09-09 08:00:00 10.6 5 Sudeste 6 Sudeste 0 -- -- 81
2020-09-09 07:00:00 10.8 2 Este 5 Este 0 -- -- 79
2020-09-09 06:00:00 12.2 0 Calma 7 Este 0 -- -- 74
2020-09-09 05:00:00 12 5 Sudeste 8 Oeste 0 -- -- 74
2020-09-09 04:00:00 13.2 3 Sudeste 9 Sur 0 -- -- 71
2020-09-09 03:00:00 13.6 2 Sur 5 Sudoeste 0 -- -- 69
2020-09-09 02:00:00 14.7 3 Este 8 Este 0 -- -- 65
2020-09-09 01:00:00 16.1 2 Noroeste 4 Sudeste 0 -- -- 60
2020-09-09 00:00:00 17.2 0 Calma 5 Sur 0 -- -- 57
2020-09-08 23:00:00 18.6 2 Nordeste 8 Sur 0 -- -- 53
2020-09-08 22:00:00 20 0 Calma 8 Sudeste 0 -- -- 48
2020-09-08 21:00:00 21.5 4 Oeste 11 Nordeste 0 -- -- 44
2020-09-08 20:00:00 25.9 3 Noroeste 20 Sudoeste 0 -- -- 34
2020-09-08 19:00:00 27.3 14 Sudoeste 26 Sudoeste 0 -- -- 27
2020-09-08 18:00:00 28.6 9 Oeste 21 Oeste 0 -- -- 26
2020-09-08 17:00:00 28.5 6 Sudoeste 16 Noroeste 0 -- -- 24
2020-09-08 16:00:00 27.7 5 Norte 15 Norte 0 -- -- 23
2020-09-08 15:00:00 26.4 4 Sudeste 15 Norte 0 -- -- 25
2020-09-08 14:00:00 25.3 3 Noroeste 12 Nordeste 0 -- -- 28
2020-09-08 13:00:00 23.1 4 Nordeste 12 Este 0 -- -- 34
2020-09-08 12:00:00 20.4 5 Nordeste 12 Nordeste 0 -- -- 39
2020-09-08 11:00:00 17.8 6 Nordeste 13 Este 0 -- -- 51
2020-09-08 10:00:00 14.8 5 Este 9 Este 0 -- -- 55
2020-09-08 09:00:00 11.5 3 Este 6 Nordeste 0 -- -- 69
2020-09-08 08:00:00 8.5 0 Calma 6 Sudoeste 0 -- -- 82
2020-09-08 07:00:00 9 0 Calma 8 Oeste 0 -- -- 80
2020-09-08 06:00:00 10.5 4 Noroeste 13 Este 0 -- -- 73
2020-09-08 05:00:00 12.6 3 Este 6 Sudeste 0 -- -- 69
2020-09-08 04:00:00 14.1 3 Nordeste 12 Noroeste 0 -- -- 65
2020-09-08 03:00:00 14.8 3 Este 14 Norte 0 -- -- 61
2020-09-08 02:00:00 15.6 4 Sur 22 Norte 0 -- -- 59
2020-09-08 01:00:00 16.4 13 Norte 36 Norte 0 -- -- 55
2020-09-08 00:00:00 16.9 23 Norte 45 Norte 0 -- -- 52
2020-09-07 23:00:00 16.8 19 Norte 50 Nordeste 0 -- -- 54
2020-09-07 22:00:00 17 21 Norte 48 Norte 0 -- -- 53
2020-09-07 21:00:00 17.6 22 Norte 50 Nordeste 0 -- -- 50
2020-09-07 20:00:00 19 23 Norte 48 Nordeste 0 -- -- 44
2020-09-07 19:00:00 20.4 21 Norte 49 Norte 0 -- -- 40
2020-09-07 18:00:00 21.6 21 Norte 40 Noroeste 0 -- -- 39
2020-09-07 17:00:00 22.3 14 Norte 43 Norte 0 -- -- 38
2020-09-07 16:00:00 22.5 16 Norte 39 Norte 0 -- -- 37
2020-09-07 15:00:00 21.9 21 Norte 48 Norte 0 -- -- 38
2020-09-07 14:00:00 21.2 24 Norte 44 Nordeste 0 -- -- 39
2020-09-07 13:00:00 21 18 Noroeste 36 Nordeste 0 -- -- 39
2020-09-07 12:00:00 20.3 17 Norte 44 Norte 0 -- -- 42
2020-09-07 11:00:00 18.7 20 Norte 41 Nordeste 0 -- -- 46
2020-09-07 10:00:00 17.8 12 Norte 27 Nordeste 0 -- -- 49
2020-09-07 09:00:00 15.7 4 Sudeste 17 Noroeste 0 -- -- 55
2020-09-07 08:00:00 13.2 5 Noroeste 22 Noroeste 0 -- -- 64
2020-09-07 07:00:00 13.5 6 Noroeste 19 Norte 0 -- -- 66
2020-09-07 06:00:00 13.6 8 Norte 26 Norte 0 -- -- 66
2020-09-07 05:00:00 13.9 12 Norte 30 Norte 0 -- -- 64
2020-09-07 04:00:00 14.5 14 Norte 34 Norte 0 -- -- 62
2020-09-07 03:00:00 14.7 14 Norte 41 Noroeste 0 -- -- 63
2020-09-07 02:00:00 15.3 16 Norte 39 Norte 0 -- -- 60
2020-09-07 01:00:00 15.4 18 Norte 36 Norte 0 -- -- 61
2020-09-07 00:00:00 15.7 18 Norte 38 Noroeste 0 -- -- 62
2020-09-06 23:00:00 15.9 15 Norte 38 Noroeste 0 -- -- 63
2020-09-06 22:00:00 16.3 15 Norte 31 Noroeste 0 -- -- 61
2020-09-06 21:00:00 16.7 17 Norte 41 Noroeste 0 -- -- 59
2020-09-06 20:00:00 18.4 18 Noroeste 39 Noroeste 0 -- -- 56
2020-09-06 19:00:00 20.5 19 Norte 36 Norte 0 -- -- 49
2020-09-06 18:00:00 21.7 18 Norte 45 Noroeste 0 -- -- 46
2020-09-06 17:00:00 22.6 23 Noroeste 42 Noroeste 0 -- -- 44
2020-09-06 16:00:00 23.1 21 Noroeste 40 Noroeste 0 -- -- 41
2020-09-06 15:00:00 23.1 17 Norte 37 Noroeste 0 -- -- 42
2020-09-06 14:00:00 21.5 22 Noroeste 38 Noroeste 0 -- -- 49
2020-09-06 13:00:00 21.9 13 Norte 42 Norte 0 -- -- 50
2020-09-06 12:00:00 20.4 21 Norte 40 Norte 0 -- -- 55
2020-09-06 11:00:00 19.6 21 Norte 38 Norte 0 -- -- 59
2020-09-06 10:00:00 18.4 22 Norte 39 Norte 0 -- -- 63
2020-09-06 09:00:00 17.5 19 Norte 41 Norte 0 -- -- 66
2020-09-06 08:00:00 16.3 14 Norte 28 Nordeste 0 -- -- 71
2020-09-06 07:00:00 16.3 17 Norte 30 Norte 0 -- -- 71
2020-09-06 06:00:00 16.5 12 Norte 27 Norte 0 -- -- 72
2020-09-06 05:00:00 16.7 13 Norte 29 Norte 0 -- -- 72
2020-09-06 04:00:00 16.8 11 Norte 26 Norte 0 -- -- 70
2020-09-06 03:00:00 17.1 14 Norte 28 Norte 0 -- -- 71
2020-09-06 02:00:00 17.2 13 Norte 30 Nordeste 0 -- -- 71
2020-09-06 01:00:00 17.6 14 Norte 31 Norte 0 -- -- 71
2020-09-06 00:00:00 18 13 Norte 30 Norte 0 -- -- 71
2020-09-05 23:00:00 18.4 9 Norte 26 Norte 0 -- -- 70
2020-09-05 22:00:00 18.9 5 Norte 22 Noroeste 0 -- -- 70
2020-09-05 21:00:00 19.6 6 Noroeste 22 Noroeste 0 -- -- 67
2020-09-05 20:00:00 22 7 Norte 23 Norte 0 -- -- 60
2020-09-05 19:00:00 23.7 11 Norte 31 Norte 0 -- -- 55
2020-09-05 18:00:00 25.4 14 Norte 34 Norte 0 -- -- 51
2020-09-05 17:00:00 26.8 14 Norte 30 Norte 0 -- -- 48
2020-09-05 16:00:00 27.9 13 Norte 29 Nordeste 0 -- -- 45
2020-09-05 15:00:00 27.8 15 Norte 26 Noroeste 0 -- -- 46
2020-09-05 14:00:00 28.3 12 Norte 24 Norte 0 -- -- 46
2020-09-05 13:00:00 27.5 4 Norte 13 Nordeste 0 -- -- 47
2020-09-05 12:00:00 25.4 4 Noroeste 11 Noroeste 0 -- -- 49
2020-09-05 11:00:00 23.1 5 Este 9 Nordeste 0 -- -- 54
2020-09-05 10:00:00 20.3 4 Nordeste 10 Este 0 -- -- 55
2020-09-05 09:00:00 16.9 0 Calma 7 Sudoeste 0 -- -- 64
2020-09-05 08:00:00 14.3 2 Nordeste 9 Sudeste 0 -- -- 69
2020-09-05 07:00:00 15.1 3 Sudeste 13 Sudeste 0 -- -- 66
2020-09-05 06:00:00 15.2 2 Sudeste 8 Sudeste 0 -- -- 62
2020-09-05 05:00:00 16.3 3 Sudeste 6 Sudeste 0 -- -- 59
2020-09-05 04:00:00 17.3 3 Este 8 Sudeste 0 -- -- 56
2020-09-05 03:00:00 18.4 3 Este 10 Este 0 -- -- 53
2020-09-05 02:00:00 19.2 0 Calma 4 Sudeste 0 -- -- 47
2020-09-05 01:00:00 20 0 Calma 6 Este 0 -- -- 45
2020-09-05 00:00:00 21.5 3 Sur 6 Sudeste 0 -- -- 41
2020-09-04 23:00:00 22.7 2 Este 10 Sudeste 0 -- -- 38
2020-09-04 22:00:00 25 0 Calma 22 Sur 0 -- -- 32
2020-09-04 21:00:00 26.9 17 Sur 21 Sur 0 -- -- 27
2020-09-04 20:00:00 30.6 11 Sur 24 Sudoeste 0 -- -- 25
2020-09-04 19:00:00 32.8 14 Sur 28 Sudoeste 0 -- -- 22
2020-09-04 18:00:00 33.6 12 Sur 30 Sur 0 -- -- 21
2020-09-04 17:00:00 33.9 18 Sur 31 Sudoeste 0 -- -- 20
2020-09-04 16:00:00 33.5 17 Sur 33 Sur 0 -- -- 22
2020-09-04 15:00:00 33.2 20 Sur 41 Sudoeste 0 -- -- 26
2020-09-04 14:00:00 31.8 19 Sudoeste 34 Sudoeste 0 -- -- 31
2020-09-04 13:00:00 27.8 6 Nordeste 10 Norte 0 -- -- 41
2020-09-04 12:00:00 24.5 3 Norte 8 Noroeste 0 -- -- 44
2020-09-04 11:00:00 21.7 5 Norte 8 Norte 0 -- -- 45
2020-09-04 10:00:00 19 3 Norte 6 Nordeste 0 -- -- 49
2020-09-04 09:00:00 14.9 3 Oeste 5 Oeste 0 -- -- 61
2020-09-04 08:00:00 12.2 0 Calma 8 Sudeste 0 -- -- 70
2020-09-04 07:00:00 13.9 5 Sur 8 Sudeste 0 -- -- 62
2020-09-04 06:00:00 13.3 0 Calma 3 Norte 0 -- -- 62
2020-09-04 05:00:00 14.2 2 Sudeste 4 Sudoeste 0 -- -- 58
2020-09-04 04:00:00 14.4 0 Calma 4 Este 0 -- -- 58
2020-09-04 03:00:00 15 3 Este 7 Sudoeste 0 -- -- 55
2020-09-04 02:00:00 16.3 3 Este 7 Sur 0 -- -- 51
2020-09-04 01:00:00 17.2 0 Calma 8 Sudeste 0 -- -- 48
2020-09-04 00:00:00 18.2 5 Sudeste 7 Sudeste 0 -- -- 46
2020-09-03 23:00:00 20.4 2 Sudoeste 6 Este 0 -- -- 40
2020-09-03 22:00:00 22.4 3 Este 18 Sur 0 -- -- 36
2020-09-03 21:00:00 24.7 16 Sur 18 Sur 0 -- -- 32
2020-09-03 20:00:00 29.1 8 Sur 13 Sur 0 -- -- 26
2020-09-03 19:00:00 31.1 9 Sur 14 Sur 0 -- -- 22
2020-09-03 18:00:00 31.4 3 Oeste 19 Sudoeste 0 -- -- 21
2020-09-03 17:00:00 31.3 10 Sur 22 Sur 0 -- -- 22
2020-09-03 16:00:00 30.4 6 Sur 21 Sur 0 -- -- 23
2020-09-03 15:00:00 29.1 12 Sur 26 Sudoeste 0 -- -- 24
2020-09-03 14:00:00 28.1 10 Sudoeste 21 Sur 0 -- -- 30
2020-09-03 13:00:00 25.7 11 Sudoeste 19 Sudoeste 0 -- -- 39
2020-09-03 12:00:00 21.1 5 Noroeste 9 Noroeste 0 -- -- 49
2020-09-03 11:00:00 17.6 4 Norte 9 Nordeste 0 -- -- 57
2020-09-03 10:00:00 15.2 6 Este 10 Este 0 -- -- 65
2020-09-03 09:00:00 11.7 0 Calma 4 Noroeste 0 -- -- 77
2020-09-03 08:00:00 9.2 2 Nordeste 6 Sudeste 0 -- -- 85
2020-09-03 07:00:00 9.1 5 Sudoeste 7 Oeste 0 -- -- 83
2020-09-03 06:00:00 10.3 3 Sudeste 5 Sudeste 0 -- -- 80
2020-09-03 05:00:00 11.7 0 Calma 11 Sudeste 0 -- -- 74
2020-09-03 04:00:00 12.8 2 Este 12 Este 0 -- -- 70
2020-09-03 03:00:00 13.9 8 Sudeste 13 Sudeste 0 -- -- 68
2020-09-03 02:00:00 14.4 9 Sudeste 15 Sudeste 0 -- -- 66
2020-09-03 01:00:00 15.1 5 Este 10 Este 0 -- -- 63
2020-09-03 00:00:00 16.5 0 Calma 7 Sudoeste 0 -- -- 59
2020-09-02 23:00:00 17.4 6 Norte 14 Noroeste 0 -- -- 57
2020-09-02 22:00:00 18.3 9 Norte 19 Noroeste 0 -- -- 51
2020-09-02 21:00:00 19.9 9 Noroeste 32 Norte 0 -- -- 45
2020-09-02 20:00:00 22.2 13 Norte 35 Nordeste 0 -- -- 40
2020-09-02 19:00:00 23.8 17 Norte 32 Noroeste 0 -- -- 37
2020-09-02 18:00:00 25.5 15 Norte 31 Norte 0 -- -- 32
2020-09-02 17:00:00 26.3 13 Norte 27 Noroeste 0 -- -- 30
2020-09-02 16:00:00 26.8 11 Norte 26 Noroeste 0 -- -- 31
2020-09-02 15:00:00 26.3 12 Norte 23 Noroeste 0 -- -- 32
2020-09-02 14:00:00 25.6 10 Norte 24 Norte 0 -- -- 32
2020-09-02 13:00:00 24.8 11 Noroeste 23 Noroeste 0 -- -- 34
2020-09-02 12:00:00 23.7 10 Norte 21 Norte 0 -- -- 37
2020-09-02 11:00:00 21.7 6 Nordeste 13 Nordeste 0 -- -- 44
2020-09-02 10:00:00 19.3 4 Nordeste 14 Este 0 -- -- 49
2020-09-02 09:00:00 17 8 Este 14 Este 0 -- -- 58
2020-09-02 08:00:00 14.2 4 Este 15 Noroeste 0 -- -- 66
2020-09-02 07:00:00 15.3 7 Norte 14 Noroeste 0 -- -- 61
2020-09-02 06:00:00 15.8 6 Noroeste 21 Norte 0 -- -- 61
2020-09-02 05:00:00 15.5 8 Noroeste 20 Noroeste 0 -- -- 63
2020-09-02 04:00:00 15.9 12 Noroeste 19 Noroeste 0 -- -- 63
2020-09-02 03:00:00 16.2 6 Noroeste 17 Norte 0 -- -- 63
2020-09-02 02:00:00 16.7 9 Noroeste 19 Norte 0 -- -- 61
2020-09-02 01:00:00 17.1 8 Noroeste 21 Norte 0 -- -- 63
2020-09-02 00:00:00 17.6 7 Noroeste 25 Noroeste 0 -- -- 64
2020-09-01 23:00:00 18.4 10 Norte 25 Noroeste 0 -- -- 63
2020-09-01 22:00:00 19.2 12 Norte 28 Norte 0 -- -- 59
2020-09-01 21:00:00 19.9 10 Norte 27 Norte 0 -- -- 49
2020-09-01 20:00:00 21.4 12 Norte 31 Norte 0 -- -- 43
2020-09-01 19:00:00 23.2 14 Norte 33 Norte 0 -- -- 42
2020-09-01 18:00:00 25.3 21 Noroeste 34 Noroeste 0 -- -- 34
2020-09-01 17:00:00 26.7 15 Noroeste 31 Noroeste 0 -- -- 25
2020-09-01 16:00:00 27 13 Norte 24 Noroeste 0 -- -- 28
2020-09-01 15:00:00 26.6 9 Norte 21 Norte 0 -- -- 24
2020-09-01 14:00:00 25 7 Nordeste 19 Nordeste 0 -- -- 30
2020-09-01 13:00:00 22.7 4 Nordeste 10 Este 0 -- -- 40
2020-09-01 12:00:00 19.4 2 Norte 8 Nordeste 0 -- -- 48
2020-09-01 11:00:00 17.1 4 Este 12 Este 0 -- -- 55
2020-09-01 10:00:00 14.6 4 Este 12 Este 0 -- -- 64
2020-09-01 09:00:00 13.3 5 Este 11 Este 0 -- -- 70
2020-09-01 08:00:00 12.1 6 Sudeste 9 Sudeste 0 -- -- 75
2020-09-01 07:00:00 11.9 4 Sudeste 8 Sudeste 0 -- -- 74
2020-09-01 06:00:00 12.5 5 Sudeste 7 Sur 0 -- -- 71
2020-09-01 05:00:00 12.7 3 Sudoeste 8 Oeste 0 -- -- 70
2020-09-01 04:00:00 13.6 4 Sudoeste 6 Sudeste 0 -- -- 67
2020-09-01 03:00:00 15.2 4 Este 9 Sudeste 0 -- -- 62
2020-09-01 02:00:00 16.1 7 Sudeste 13 Sudeste 0 -- -- 58
2020-09-01 01:00:00 16.4 6 Sur 13 Este 0 -- -- 54
2020-09-01 00:00:00 17.5 3 Nordeste 9 Noroeste 0 -- -- 45
2020-08-31 23:00:00 17.9 4 Sur 14 Norte 0 -- -- 44
2020-08-31 22:00:00 18.9 9 Nordeste 15 Nordeste 0 -- -- 45
2020-08-31 21:00:00 19.8 4 Este 17 Norte 0 -- -- 48
2020-08-31 20:00:00 21.8 8 Nordeste 17 Norte 0 -- -- 44
2020-08-31 19:00:00 24.2 9 Norte 25 Noroeste 0 -- -- 30
2020-08-31 18:00:00 25.6 11 Noroeste 21 Noroeste 0 -- -- 29
2020-08-31 17:00:00 25.3 5 Este 14 Este 0 -- -- 30
2020-08-31 16:00:00 24.5 5 Este 14 Oeste 0 -- -- 28
2020-08-31 15:00:00 23.4 6 Nordeste 15 Nordeste 0 -- -- 31
2020-08-31 14:00:00 22 6 Nordeste 14 Nordeste 0 -- -- 35
2020-08-31 13:00:00 20.8 6 Nordeste 14 Nordeste 0 -- -- 41
2020-08-31 12:00:00 19.1 5 Norte 12 Noroeste 0 -- -- 46
2020-08-31 11:00:00 17.3 3 Noroeste 9 Nordeste 0 -- -- 54
2020-08-31 10:00:00 14.7 6 Nordeste 9 Nordeste 0 -- -- 65
2020-08-31 09:00:00 12 0 Calma 8 Sudeste 0 -- -- 74
2020-08-31 08:00:00 9.6 8 Sudeste 12 Sudeste 0 -- -- 82
2020-08-31 07:00:00 9.5 6 Sudeste 8 Sudeste 0 -- -- 80
2020-08-31 06:00:00 10.2 3 Sudeste 10 Sudeste 0 -- -- 78
2020-08-31 05:00:00 11 0 Calma 8 Este 0 -- -- 74
2020-08-31 04:00:00 12 3 Noroeste 15 Norte 0 -- -- 69
2020-08-31 03:00:00 12.2 4 Noroeste 12 Norte 0 -- -- 67
2020-08-31 02:00:00 12.5 5 Noroeste 10 Noroeste 0 -- -- 69
2020-08-31 01:00:00 12.7 3 Noroeste 15 Norte 0 -- -- 69
2020-08-31 00:00:00 13.7 9 Norte 21 Noroeste 0 -- -- 64
2020-08-30 23:00:00 14 9 Norte 23 Norte 0 -- -- 64
2020-08-30 22:00:00 14.6 10 Norte 24 Nordeste 0 -- -- 64
2020-08-30 21:00:00 15.5 13 Nordeste 26 Norte 0 -- -- 63
2020-08-30 20:00:00 17.4 15 Norte 37 Noroeste 0 -- -- 55
2020-08-30 19:00:00 18.3 22 Norte 41 Nordeste 0 -- -- 52
2020-08-30 18:00:00 19.8 17 Norte 45 Noroeste 0 -- -- 45
2020-08-30 17:00:00 19.6 22 Noroeste 46 Nordeste 0 -- -- 46
2020-08-30 16:00:00 19.8 24 Noroeste 40 Norte 0 -- -- 49
2020-08-30 15:00:00 19.4 21 Noroeste 37 Norte 0 -- -- 52
2020-08-30 14:00:00 18.8 12 Norte 36 Noroeste 0 -- -- 55
2020-08-30 13:00:00 18.1 14 Norte 32 Norte 0 -- -- 57
2020-08-30 12:00:00 16.6 13 Norte 29 Noroeste 0 -- -- 61
2020-08-30 11:00:00 15.2 9 Norte 31 Noroeste 0 -- -- 68
2020-08-30 10:00:00 13.6 14 Noroeste 28 Noroeste 0 -- -- 70
2020-08-30 09:00:00 12.8 10 Noroeste 18 Noroeste 0 -- -- 75
2020-08-30 08:00:00 11.4 5 Noroeste 14 Noroeste 0 -- -- 81
2020-08-30 07:00:00 10.5 7 Sudoeste 13 Sur 0 -- -- 85
2020-08-30 06:00:00 10.8 6 Noroeste 11 Noroeste 0 -- -- 82
2020-08-30 05:00:00 10.9 5 Este 22 Noroeste 0 -- -- 83
2020-08-30 04:00:00 11.7 8 Noroeste 23 Noroeste 0 -- -- 80
2020-08-30 03:00:00 12.2 12 Noroeste 32 Noroeste 0 -- -- 77
2020-08-30 02:00:00 12.6 12 Norte 30 Norte 0 -- -- 81
2020-08-30 01:00:00 12.7 11 Norte 23 Norte 0 -- -- 82
2020-08-30 00:00:00 12.6 8 Oeste 42 Noroeste 1.4 -- -- 85
2020-08-29 23:00:00 14.1 20 Noroeste 37 Noroeste 0 -- -- 76
2020-08-29 22:00:00 15 13 Noroeste 32 Noroeste 0 -- -- 70
2020-08-29 21:00:00 15.6 17 Norte 36 Norte 0 -- -- 68
2020-08-29 20:00:00 17.9 13 Noroeste 30 Noroeste 0 -- -- 60
2020-08-29 19:00:00 18.9 14 Norte 33 Noroeste 0 -- -- 55
2020-08-29 18:00:00 19.8 17 Norte 43 Noroeste 0 -- -- 54
2020-08-29 17:00:00 21.7 18 Noroeste 34 Norte 0 -- -- 44
2020-08-29 16:00:00 21.8 14 Norte 36 Noroeste 0 -- -- 43
2020-08-29 15:00:00 21.9 18 Noroeste 34 Norte 0 -- -- 43
2020-08-29 14:00:00 21.2 14 Norte 39 Noroeste 0 -- -- 45
2020-08-29 13:00:00 20 22 Noroeste 42 Noroeste 0 -- -- 48
2020-08-29 12:00:00 19.6 17 Noroeste 35 Noroeste 0 -- -- 50
2020-08-29 11:00:00 18 15 Norte 29 Noroeste 0 -- -- 56
2020-08-29 10:00:00 16.9 15 Norte 33 Norte 0 -- -- 61
2020-08-29 09:00:00 14.8 10 Norte 19 Norte 0 -- -- 71
2020-08-29 08:00:00 13.5 11 Noroeste 21 Noroeste 0 -- -- 76
2020-08-29 07:00:00 13.4 3 Oeste 19 Noroeste 0 -- -- 75
2020-08-29 06:00:00 13.6 10 Noroeste 22 Noroeste 0 -- -- 74
2020-08-29 05:00:00 13.5 6 Noroeste 14 Noroeste 0 -- -- 74
2020-08-29 04:00:00 14.1 9 Noroeste 21 Noroeste 0 -- -- 71
2020-08-29 03:00:00 14.3 11 Noroeste 22 Noroeste 0 -- -- 70
2020-08-29 02:00:00 15 11 Noroeste 31 Noroeste 0 -- -- 67
2020-08-29 01:00:00 15.7 12 Norte 32 Noroeste 0 -- -- 66
2020-08-29 00:00:00 16.2 9 Norte 29 Noroeste 0 -- -- 62
2020-08-28 23:00:00 16.4 16 Norte 28 Norte 0 -- -- 62
2020-08-28 22:00:00 16.3 13 Norte 39 Norte 0 -- -- 68
2020-08-28 21:00:00 17.1 18 Noroeste 32 Noroeste 0 -- -- 66
2020-08-28 20:00:00 18.6 17 Noroeste 51 Norte 0 -- -- 62
2020-08-28 19:00:00 19.6 18 Norte 50 Norte 0 -- -- 59
2020-08-28 18:00:00 21.9 23 Norte 46 Nordeste 0 -- -- 54
2020-08-28 17:00:00 21.8 15 Norte 43 Norte 0 -- -- 55
2020-08-28 16:00:00 22.2 25 Norte 44 Norte 0 -- -- 54
2020-08-28 15:00:00 23.8 16 Norte 35 Nordeste 0 -- -- 53
2020-08-28 14:00:00 24.1 22 Nordeste 37 Nordeste 0 -- -- 52
2020-08-28 13:00:00 21.9 19 Norte 36 Nordeste 0 -- -- 57
2020-08-28 12:00:00 21.4 12 Norte 27 Norte 0 -- -- 63
2020-08-28 11:00:00 21.4 7 Norte 26 Norte 0 -- -- 67
2020-08-28 10:00:00 22.3 7 Nordeste 17 Este 0 -- -- 70
2020-08-28 09:00:00 20.9 6 Este 15 Nordeste 0 -- -- 74
2020-08-28 08:00:00 20.1 5 Este 11 Este 0 -- -- 76
2020-08-28 07:00:00 19.7 6 Sudeste 12 Sudeste 0 -- -- 78
2020-08-28 06:00:00 19.1 7 Sudeste 13 Este 0 -- -- 81
2020-08-28 05:00:00 19.6 10 Este 19 Este 0 -- -- 79
2020-08-28 04:00:00 19.8 6 Sudeste 18 Este 0 -- -- 79
2020-08-28 03:00:00 20.6 12 Este 21 Este 0 -- -- 75
2020-08-28 02:00:00 21.6 9 Este 16 Este 0 -- -- 71
2020-08-28 01:00:00 22.2 3 Nordeste 10 Norte 0 -- -- 69
2020-08-28 00:00:00 22.8 4 Nordeste 16 Norte 0 -- -- 66
2020-08-27 23:00:00 23.8 7 Norte 24 Nordeste 0 -- -- 62
2020-08-27 22:00:00 25 11 Norte 20 Nordeste 0 -- -- 59
2020-08-27 21:00:00 26.9 6 Sudoeste 27 Noroeste 0 -- -- 54
2020-08-27 20:00:00 29.2 13 Nordeste 32 Norte 0 -- -- 48
2020-08-27 19:00:00 31.5 16 Norte 32 Norte 0 -- -- 43
2020-08-27 18:00:00 34.6 10 Norte 25 Norte 0 -- -- 33
2020-08-27 17:00:00 35.6 8 Noroeste 27 Norte 0 -- -- 29
2020-08-27 16:00:00 34.6 7 Nordeste 14 Noroeste 0 -- -- 31
2020-08-27 15:00:00 34.1 5 Noroeste 14 Noroeste 0 -- -- 34
2020-08-27 14:00:00 32.1 8 Nordeste 14 Norte 0 -- -- 37
2020-08-27 13:00:00 29.3 4 Este 10 Nordeste 0 -- -- 45
2020-08-27 12:00:00 26.8 5 Nordeste 10 Sudeste 0 -- -- 48
2020-08-27 11:00:00 23.9 6 Nordeste 10 Nordeste 0 -- -- 59
2020-08-27 10:00:00 21.5 7 Nordeste 13 Este 0 -- -- 64
2020-08-27 09:00:00 19.4 5 Este 8 Este 0 -- -- 74
2020-08-27 08:00:00 16.9 4 Sudeste 8 Este 0 -- -- 81
2020-08-27 07:00:00 17 6 Sudeste 12 Este 0 -- -- 84
2020-08-27 06:00:00 17.4 2 Este 10 Sudeste 0 -- -- 81
2020-08-27 05:00:00 18.3 6 Sudeste 14 Este 0 -- -- 77
2020-08-27 04:00:00 19.6 9 Este 19 Este 0 -- -- 76
2020-08-27 03:00:00 20.2 9 Este 18 Este 0 -- -- 74
2020-08-27 02:00:00 20.8 9 Este 16 Este 0 -- -- 68
2020-08-27 01:00:00 21.8 10 Sudeste 18 Sudeste 0 -- -- 64
2020-08-27 00:00:00 22.1 9 Sudeste 14 Sudeste 0 -- -- 61
2020-08-26 23:00:00 22.9 5 Sudeste 10 Sudeste 0 -- -- 60
2020-08-26 22:00:00 24.3 5 Sudoeste 18 Este 0 -- -- 58
2020-08-26 21:00:00 26.6 6 Este 17 Noroeste 0 -- -- 54
2020-08-26 20:00:00 30.1 5 Noroeste 24 Noroeste 0 -- -- 47
2020-08-26 19:00:00 32.3 9 Norte 27 Norte 0 -- -- 42
2020-08-26 18:00:00 34.6 14 Norte 22 Noroeste 0 -- -- 36
2020-08-26 17:00:00 35.1 6 Norte 15 Noroeste 0 -- -- 34
2020-08-26 16:00:00 34.3 6 Norte 31 Noroeste 0 -- -- 35
2020-08-26 15:00:00 33.7 9 Sur 24 Sur 0 -- -- 37
2020-08-26 14:00:00 32.4 10 Sur 22 Sur 0 -- -- 41
2020-08-26 13:00:00 29.5 7 Norte 13 Norte 0 -- -- 47
2020-08-26 12:00:00 27 3 Norte 13 Nordeste 0 -- -- 52
2020-08-26 11:00:00 24.3 8 Este 18 Este 0 -- -- 56
2020-08-26 10:00:00 22.3 9 Este 18 Este 0 -- -- 63
2020-08-26 09:00:00 19.8 6 Este 11 Este 0 -- -- 71
2020-08-26 08:00:00 16.8 5 Este 10 Este 0 -- -- 79
2020-08-26 07:00:00 17.3 6 Sudeste 10 Sudeste 0 -- -- 76
2020-08-26 06:00:00 18.1 7 Sudeste 17 Este 0 -- -- 72
2020-08-26 05:00:00 18.7 8 Sudeste 21 Sudeste 0 -- -- 69
2020-08-26 04:00:00 19.3 10 Este 19 Este 0 -- -- 67
2020-08-26 03:00:00 19.9 11 Este 19 Este 0 -- -- 64
2020-08-26 02:00:00 20.4 10 Este 17 Este 0 -- -- 61
2020-08-26 01:00:00 20.6 6 Este 20 Nordeste 0 -- -- 59
2020-08-26 00:00:00 21.6 9 Este 17 Este 0 -- -- 57
2020-08-25 23:00:00 22.5 8 Este 18 Nordeste 0 -- -- 53
2020-08-25 22:00:00 24.1 11 Este 19 Nordeste 0 -- -- 51
2020-08-25 21:00:00 27.9 7 Nordeste 18 Norte 0 -- -- 44
2020-08-25 20:00:00 31.9 10 Norte 22 Norte 0 -- -- 38
2020-08-25 19:00:00 34.8 11 Noroeste 21 Noroeste 0 -- -- 25
2020-08-25 18:00:00 35.4 9 Noroeste 24 Noroeste 0 -- -- 24
2020-08-25 17:00:00 35.1 15 Noroeste 31 Noroeste 0 -- -- 24
2020-08-25 16:00:00 35.1 9 Norte 20 Norte 0 -- -- 25
2020-08-25 15:00:00 33.7 7 Norte 18 Noroeste 0 -- -- 27
2020-08-25 14:00:00 32.3 6 Noroeste 14 Norte 0 -- -- 31
2020-08-25 13:00:00 29.6 6 Nordeste 12 Nordeste 0 -- -- 35
2020-08-25 12:00:00 25.8 4 Nordeste 9 Nordeste 0 -- -- 35
2020-08-25 11:00:00 21.9 4 Norte 8 Nordeste 0 -- -- 48
2020-08-25 10:00:00 18.8 3 Norte 6 Nordeste 0 -- -- 59
2020-08-25 09:00:00 16.1 2 Nordeste 5 Sur 0 -- -- 68
2020-08-25 08:00:00 13.6 4 Sur 8 Sur 0 -- -- 73
2020-08-25 07:00:00 13.6 3 Oeste 7 Sudoeste 0 -- -- 72
2020-08-25 06:00:00 13.7 5 Sudoeste 7 Sudoeste 0 -- -- 74
2020-08-25 05:00:00 14.2 2 Este 4 Este 0 -- -- 74
2020-08-25 04:00:00 14.9 0 Calma 4 Sudeste 0 -- -- 71
2020-08-25 03:00:00 15.6 0 Calma 4 Sur 0 -- -- 69
2020-08-25 02:00:00 16.2 4 Sudoeste 9 Sur 0 -- -- 67
2020-08-25 01:00:00 17.9 0 Calma 7 Sudeste 0 -- -- 62
2020-08-25 00:00:00 19.5 3 Este 8 Sudeste 0 -- -- 55
2020-08-24 23:00:00 20.4 5 Sur 12 Sur 0 -- -- 53
2020-08-24 22:00:00 22.1 3 Sur 9 Noroeste 0 -- -- 49
2020-08-24 21:00:00 24.5 5 Noroeste 13 Noroeste 0 -- -- 43
2020-08-24 20:00:00 27.7 6 Norte 18 Noroeste 0 -- -- 36
2020-08-24 19:00:00 28.7 8 Norte 22 Norte 0 -- -- 31
2020-08-24 18:00:00 29.6 8 Norte 18 Norte 0 -- -- 30
2020-08-24 17:00:00 29.2 6 Nordeste 20 Norte 0 -- -- 30
2020-08-24 16:00:00 29.1 8 Norte 23 Noroeste 0 -- -- 31
2020-08-24 15:00:00 28.2 13 Noroeste 22 Noroeste 0 -- -- 36
2020-08-24 14:00:00 26.9 8 Norte 22 Noroeste 0 -- -- 36
2020-08-24 13:00:00 25.3 12 Norte 21 Norte 0 -- -- 41
2020-08-24 12:00:00 23.6 10 Noroeste 23 Noroeste 0 -- -- 47
2020-08-24 11:00:00 22.4 10 Norte 22 Norte 0 -- -- 52
2020-08-24 10:00:00 20.6 6 Nordeste 17 Nordeste 0 -- -- 59
2020-08-24 09:00:00 18.4 5 Nordeste 15 Norte 0 -- -- 66
2020-08-24 08:00:00 16 8 Noroeste 17 Noroeste 0 -- -- 73
2020-08-24 07:00:00 15.7 4 Noroeste 17 Noroeste 0 -- -- 72
2020-08-24 06:00:00 16.4 9 Noroeste 24 Noroeste 0 -- -- 71
2020-08-24 05:00:00 16.5 9 Noroeste 20 Noroeste 0 -- -- 70
2020-08-24 04:00:00 17 6 Norte 26 Noroeste 0 -- -- 69
2020-08-24 03:00:00 17.6 12 Noroeste 22 Norte 0 -- -- 66
2020-08-24 02:00:00 17.6 10 Noroeste 19 Norte 0 -- -- 68
2020-08-24 01:00:00 17.9 9 Norte 22 Norte 0 -- -- 68
2020-08-24 00:00:00 18.3 9 Norte 18 Noroeste 0 -- -- 67
2020-08-23 23:00:00 19.3 5 Norte 23 Norte 0 -- -- 63
2020-08-23 22:00:00 20.1 10 Norte 24 Norte 0 -- -- 61
2020-08-23 21:00:00 21.6 7 Norte 26 Noroeste 0 -- -- 57
2020-08-23 20:00:00 23.5 13 Noroeste 26 Noroeste 0 -- -- 50
2020-08-23 19:00:00 25 15 Noroeste 30 Noroeste 0 -- -- 46
2020-08-23 18:00:00 26.5 18 Noroeste 31 Noroeste 0 -- -- 40
2020-08-23 17:00:00 27.6 16 Noroeste 33 Noroeste 0 -- -- 37
2020-08-23 16:00:00 26.7 15 Norte 35 Noroeste 0 -- -- 37
2020-08-23 15:00:00 26.7 15 Norte 33 Norte 0 -- -- 40
2020-08-23 14:00:00 26 14 Norte 33 Noroeste 0 -- -- 40
2020-08-23 13:00:00 24.7 18 Noroeste 30 Noroeste 0 -- -- 43
2020-08-23 12:00:00 24.2 13 Norte 33 Norte 0 -- -- 46
2020-08-23 11:00:00 22.6 15 Norte 27 Nordeste 0 -- -- 52
2020-08-23 10:00:00 20.8 12 Norte 22 Noroeste 0 -- -- 59
2020-08-23 09:00:00 19 13 Noroeste 23 Noroeste 0 -- -- 63
2020-08-23 08:00:00 16.6 10 Noroeste 19 Noroeste 0 -- -- 73
2020-08-23 07:00:00 16.4 6 Oeste 14 Noroeste 0 -- -- 74
2020-08-23 06:00:00 16.6 6 Oeste 15 Oeste 0 -- -- 73
2020-08-23 05:00:00 17.2 9 Noroeste 17 Noroeste 0 -- -- 73
2020-08-23 04:00:00 17.6 8 Noroeste 19 Noroeste 0 -- -- 73
2020-08-23 03:00:00 17.3 7 Noroeste 14 Noroeste 0 -- -- 74
2020-08-23 02:00:00 17.4 5 Sudoeste 22 Noroeste 0 -- -- 73
2020-08-23 01:00:00 18.1 8 Noroeste 15 Noroeste 0 -- -- 72
2020-08-23 00:00:00 19.2 9 Noroeste 17 Noroeste 0 -- -- 65